Time;durP1;ratioP1;P1;durP2;ratioP2;P2;SDS_P1;SDS_P2;PMS_P1;PMS_P2;Temp;Humidity;BMP_temperature;BMP_pressure;BME280_temperature;BME280_humidity;BME280_pressure;Samples;Min_cycle;Max_cycle;Signal;HPM_P1;HPM_P2
2022/09/24 00:01:31;;;;;;;43.38;22.22;;;;;;;6.25;80.44;98678.44;1745845;82;25659;-64
2022/09/24 00:04:04;;;;;;;41.35;21.82;;;;;;;6.22;80.26;98673.00;1746152;82;25434;-64
2022/09/24 00:06:39;;;;;;;39.10;20.23;;;;;;;6.10;80.52;98672.58;1746311;82;25463;-64
2022/09/24 00:09:06;;;;;;;40.45;20.62;;;;;;;6.06;80.82;98679.66;1745821;82;27475;-65
2022/09/24 00:11:33;;;;;;;41.23;20.62;;;;;;;5.98;80.83;98675.59;1745886;81;25616;-65
2022/09/24 00:14:00;;;;;;;40.83;20.02;;;;;;;5.91;81.11;98675.93;1746009;82;25688;-65
2022/09/24 00:16:30;;;;;;;40.67;21.40;;;;;;;5.85;81.29;98669.72;1745834;82;25659;-65
2022/09/24 00:18:58;;;;;;;41.20;20.73;;;;;;;5.78;81.49;98668.66;1746505;82;25664;-64
2022/09/24 00:21:36;;;;;;;47.25;22.05;;;;;;;5.76;81.71;98661.89;1745735;82;27439;-64
2022/09/24 00:26:48;;;;;;;44.35;21.48;;;;;;;5.78;81.82;98668.66;1746196;82;25486;-64
2022/09/24 00:26:48;;;;;;;46.45;21.65;;;;;;;5.83;82.01;98664.27;1742097;82;25429;-64
2022/09/24 00:29:22;;;;;;;42.05;21.50;;;;;;;5.85;81.69;98654.77;1745941;82;25657;-64
2022/09/24 00:31:51;;;;;;;47.05;20.77;;;;;;;5.88;81.70;98655.53;1746296;82;25403;-64
2022/09/24 00:34:19;;;;;;;41.90;19.75;;;;;;;5.92;81.60;98652.24;1746231;81;28170;-63
2022/09/24 00:36:47;;;;;;;48.48;20.88;;;;;;;5.90;81.28;98643.83;1745795;81;25419;-64
2022/09/24 00:39:14;;;;;;;40.45;20.12;;;;;;;5.88;81.16;98645.22;1746119;82;25461;-64
2022/09/24 00:41:44;;;;;;;38.67;19.80;;;;;;;5.90;81.00;98641.64;1745753;82;25614;-64
2022/09/24 00:44:41;;;;;;;39.58;19.48;;;;;;;5.86;80.97;98640.06;1745685;82;25691;-64
2022/09/24 00:47:30;;;;;;;37.03;19.15;;;;;;;5.92;81.37;98643.55;1746320;82;28122;-64
2022/09/24 00:50:14;;;;;;;37.53;20.37;;;;;;;5.86;80.98;98634.62;1745964;82;25805;-63
2022/09/24 00:52:51;;;;;;;42.40;20.52;;;;;;;5.73;80.88;98638.77;1746334;81;25593;-64
2022/09/24 00:55:21;;;;;;;35.52;19.32;;;;;;;5.56;80.79;98640.53;1745263;82;25441;-63
2022/09/24 00:57:52;;;;;;;38.35;19.25;;;;;;;5.46;80.97;98640.56;1746021;82;25435;-65
2022/09/24 01:00:19;;;;;;;37.60;20.75;;;;;;;5.36;81.07;98636.01;1746378;81;27466;-64
2022/09/24 01:02:50;;;;;;;40.25;20.55;;;;;;;5.35;81.03;98640.62;1745685;81;25711;-64
2022/09/24 01:05:18;;;;;;;40.10;21.35;;;;;;;5.32;80.89;98632.23;1746152;82;25607;-65
2022/09/24 01:07:47;;;;;;;43.87;23.02;;;;;;;5.33;80.86;98632.49;1745832;82;25490;-64
2022/09/24 01:10:46;;;;;;;42.85;22.05;;;;;;;5.33;80.80;98625.70;1740654;82;25426;-64
2022/09/24 01:12:55;;;;;;;41.18;21.35;;;;;;;5.35;80.85;98625.67;1736424;82;32789;-64
2022/09/24 01:15:27;;;;;;;45.35;23.42;;;;;;;5.39;80.88;98618.58;1740583;82;25874;-64
2022/09/24 01:18:04;;;;;;;44.65;23.83;;;;;;;5.37;80.26;98614.52;1740518;82;25449;-65
2022/09/24 01:20:52;;;;;;;42.08;22.55;;;;;;;5.27;80.48;98611.33;1740947;81;25620;-64
2022/09/24 01:23:48;;;;;;;44.13;22.05;;;;;;;5.26;80.64;98609.69;1740694;82;25581;-64
2022/09/24 01:26:38;;;;;;;40.40;21.50;;;;;;;5.18;80.77;98598.85;1740626;82;27417;-63
2022/09/24 01:29:42;;;;;;;42.23;23.03;;;;;;;5.07;81.24;98594.58;1740554;82;25608;-65
2022/09/24 01:32:23;;;;;;;43.23;21.48;;;;;;;5.07;81.59;98591.30;1740571;82;25589;-64
2022/09/24 01:35:07;;;;;;;44.65;22.10;;;;;;;5.06;81.49;98588.33;1740972;82;26191;-65
2022/09/24 01:37:36;;;;;;;39.25;21.30;;;;;;;5.05;81.82;98596.75;1740994;82;25585;-65
2022/09/24 01:40:06;;;;;;;41.80;21.57;;;;;;;5.03;81.85;98591.59;1740533;82;27482;-64
2022/09/24 01:42:35;;;;;;;41.35;22.05;;;;;;;5.02;81.39;98594.88;1740799;82;25721;-64
2022/09/24 01:45:03;;;;;;;40.03;20.72;;;;;;;5.00;81.60;98596.23;1740777;82;25453;-65
2022/09/24 01:47:38;;;;;;;42.70;20.88;;;;;;;5.00;81.52;98601.13;1740529;82;25719;-65
2022/09/24 01:50:04;;;;;;;37.42;19.75;;;;;;;4.96;81.47;98599.23;1740042;82;25616;-64
2022/09/24 01:52:41;;;;;;;44.67;23.80;;;;;;;4.94;81.20;98594.08;1740792;82;27379;-64
2022/09/24 01:55:11;;;;;;;42.83;22.45;;;;;;;4.94;81.48;98595.44;1740952;82;25440;-65
2022/09/24 01:57:55;;;;;;;43.08;23.27;;;;;;;4.92;81.15;98592.75;1741033;82;25635;-64
2022/09/24 02:00:22;;;;;;;41.35;21.10;;;;;;;4.90;81.41;98591.09;1732509;82;27578;-63
2022/09/24 02:02:59;;;;;;;37.38;21.15;;;;;;;4.90;81.14;98590.30;1740997;82;25621;-64
2022/09/24 02:05:46;;;;;;;41.18;21.40;;;;;;;4.82;81.28;98588.98;1740376;82;27370;-63
2022/09/24 02:08:27;;;;;;;42.38;21.33;;;;;;;4.73;81.50;98585.20;1740252;82;25620;-65
2022/09/24 02:10:57;;;;;;;;;;;;;;;4.60;81.79;98580.63;1748447;82;25486;-64
2022/09/24 02:13:28;;;;;;;45.52;21.90;;;;;;;4.51;81.84;98589.88;1746088;82;26363;-65
2022/09/24 02:15:58;;;;;;;48.17;23.47;;;;;;;4.45;81.90;98584.20;1745956;82;25430;-65
2022/09/24 02:18:29;;;;;;;53.68;26.97;;;;;;;4.42;82.04;98588.81;1745993;81;27469;-65
2022/09/24 02:20:59;;;;;;;47.55;25.75;;;;;;;4.39;82.35;98587.47;1746245;82;25665;-65
2022/09/24 02:23:27;;;;;;;56.83;27.50;;;;;;;4.45;82.35;98591.52;1745967;82;25501;-65
2022/09/24 02:25:58;;;;;;;48.70;25.85;;;;;;;4.49;81.95;98590.69;1720950;82;25522;-65
2022/09/24 02:28:26;;;;;;;48.73;25.45;;;;;;;4.51;81.99;98595.30;1745971;82;25471;-65
2022/09/24 02:31:18;;;;;;;49.77;26.20;;;;;;;4.52;81.96;98595.56;1746096;81;28286;-64
2022/09/24 02:36:33;;;;;;;56.05;27.45;;;;;;;4.48;81.76;98588.25;1746064;82;25645;-65
2022/09/24 02:39:00;;;;;;;58.92;28.25;;;;;;;4.45;82.01;98587.44;1745998;82;25656;-64
2022/09/24 02:41:28;;;;;;;55.28;27.22;;;;;;;4.47;82.36;98587.45;1746022;81;25597;-65
2022/09/24 02:43:55;;;;;;;57.35;28.23;;;;;;;4.54;82.17;98589.04;1745984;82;27509;-65
2022/09/24 02:46:21;;;;;;;62.73;29.52;;;;;;;4.52;82.13;98585.27;1745837;82;25679;-65
2022/09/24 02:48:48;;;;;;;55.80;26.75;;;;;;;4.48;82.33;98585.53;1745951;82;25686;-65
2022/09/24 02:51:15;;;;;;;50.17;26.35;;;;;;;4.45;82.49;98582.02;1745891;82;25590;-64
2022/09/24 02:53:41;;;;;;;48.80;25.65;;;;;;;4.43;82.49;98582.29;1745892;82;25589;-65
2022/09/24 02:56:10;;;;;;;41.25;21.65;;;;;;;4.41;82.60;98583.13;1745943;82;27401;-65
2022/09/24 02:58:37;;;;;;;44.77;24.45;;;;;;;4.37;82.93;98576.06;1745985;82;25509;-65
2022/09/24 03:01:04;;;;;;;44.88;22.95;;;;;;;4.36;83.31;98577.70;1745941;82;25481;-65
2022/09/24 03:03:31;;;;;;;35.38;21.45;;;;;;;4.43;83.57;98580.93;1746343;82;25423;-65
2022/09/24 03:05:58;;;;;;;33.08;18.65;;;;;;;4.52;83.61;98571.14;1745948;82;25686;-64
2022/09/24 03:08:25;;;;;;;29.32;17.17;;;;;;;4.58;83.71;98569.22;1745857;82;27429;-65
2022/09/24 03:10:52;;;;;;;28.23;16.52;;;;;;;4.58;83.65;98571.14;1740666;82;25684;-65
2022/09/24 03:13:19;;;;;;;27.15;15.65;;;;;;;4.57;83.85;98563.53;1740710;82;25408;-64
2022/09/24 03:15:46;;;;;;;26.87;15.00;;;;;;;4.50;84.40;98557.59;1741278;82;25399;-64
2022/09/24 03:18:13;;;;;;;26.07;16.05;;;;;;;4.44;84.72;98554.09;1740676;82;25472;-65
2022/09/24 03:20:40;;;;;;;27.52;16.27;;;;;;;4.44;84.75;98557.33;1740719;82;27372;-63
2022/09/24 03:23:06;;;;;;;24.98;15.25;;;;;;;4.51;84.70;98555.95;1740408;82;27159;-64
2022/09/24 03:25:33;;;;;;;25.90;15.38;;;;;;;4.56;84.68;98556.48;1740623;82;25767;-64
2022/09/24 03:27:59;;;;;;;26.20;17.45;;;;;;;4.53;84.41;98563.83;1740593;82;25780;-64
2022/09/24 03:33:10;;;;;;;28.40;16.45;;;;;;;4.62;84.29;98559.98;1740627;82;25588;-64
2022/09/24 03:35:36;;;;;;;23.15;14.00;;;;;;;4.58;84.30;98555.65;1740489;82;25675;-65
2022/09/24 03:38:03;;;;;;;25.70;15.83;;;;;;;4.52;84.51;98559.49;1740634;82;25486;-64
2022/09/24 03:40:29;;;;;;;28.10;15.58;;;;;;;4.53;84.75;98559.75;1740735;82;25464;-65
2022/09/24 03:42:56;;;;;;;28.23;17.05;;;;;;;4.58;84.55;98562.44;1740995;82;25430;-65
2022/09/24 03:45:22;;;;;;;29.87;17.20;;;;;;;4.59;84.35;98556.47;1740740;82;27432;-65
2022/09/24 03:47:48;;;;;;;30.48;18.07;;;;;;;4.53;84.25;98565.18;1740512;82;25442;-64
2022/09/24 03:50:16;;;;;;;29.18;17.95;;;;;;;4.53;84.48;98561.11;1740560;82;25441;-65
2022/09/24 03:52:42;;;;;;;32.48;18.55;;;;;;;4.54;84.47;98562.73;1740738;82;25485;-64
2022/09/24 03:55:09;;;;;;;32.85;18.10;;;;;;;4.54;84.33;98564.62;1740619;82;25670;-65
2022/09/24 03:57:35;;;;;;;32.50;17.70;;;;;;;4.54;84.29;98567.33;1740596;82;27447;-65
2022/09/24 04:00:02;;;;;;;28.52;16.85;;;;;;;4.59;84.44;98564.08;1740493;82;25605;-65
2022/09/24 04:02:30;;;;;;;25.08;15.95;;;;;;;4.63;84.34;98562.43;1740494;82;25687;-65
2022/09/24 04:04:56;;;;;;;27.27;16.67;;;;;;;4.67;84.52;98558.63;1740618;82;25458;-65
2022/09/24 04:07:22;;;;;;;26.27;17.10;;;;;;;4.73;84.38;98560.77;1740633;82;25672;-65
2022/09/24 04:09:49;;;;;;;26.95;16.95;;;;;;;4.72;84.08;98554.52;1742714;82;27490;-64
2022/09/24 04:12:15;;;;;;;26.73;16.60;;;;;;;4.67;84.03;98550.48;1745891;82;25645;-65
2022/09/24 04:14:42;;;;;;;29.15;17.02;;;;;;;4.61;84.28;98551.02;1745854;82;25503;-65
2022/09/24 04:17:09;;;;;;;28.40;16.60;;;;;;;4.61;84.49;98546.95;1745727;82;25495;-64
2022/09/24 04:19:35;;;;;;;32.38;17.02;;;;;;;4.66;84.63;98541.26;1745913;82;25604;-65
2022/09/24 04:22:02;;;;;;;25.68;15.85;;;;;;;4.63;84.48;98546.67;1745884;82;27411;-65
2022/09/24 04:24:29;;;;;;;33.48;17.75;;;;;;;4.61;84.52;98548.31;1745845;82;25499;-65
2022/09/24 04:26:55;;;;;;;29.60;17.35;;;;;;;4.62;84.74;98553.20;1745822;82;25477;-64
2022/09/24 04:29:21;;;;;;;27.55;17.05;;;;;;;4.65;84.78;98543.15;1745879;82;25852;-64
2022/09/24 04:31:48;;;;;;;29.27;17.42;;;;;;;4.66;84.66;98538.55;1746449;82;25427;-64
2022/09/24 04:34:14;;;;;;;28.20;19.12;;;;;;;4.63;84.63;98545.31;1745867;82;27495;-65
2022/09/24 04:37:00;;;;;;;32.88;19.35;;;;;;;4.66;84.58;98538.55;1745999;82;25633;-65
2022/09/24 04:39:26;;;;;;;33.18;19.37;;;;;;;4.64;84.59;98534.75;1715683;83;25485;-64
2022/09/24 04:41:54;;;;;;;32.50;18.73;;;;;;;4.67;84.72;98533.38;1715522;83;25638;-64
2022/09/24 04:44:21;;;;;;;36.68;19.23;;;;;;;4.68;84.81;98530.92;1715379;83;25425;-64
2022/09/24 04:46:47;;;;;;;35.33;19.73;;;;;;;4.71;84.83;98539.33;1715403;83;27420;-64
2022/09/24 04:49:14;;;;;;;38.55;20.82;;;;;;;4.75;84.92;98536.31;1715253;83;25680;-65
2022/09/24 04:51:41;;;;;;;34.70;20.68;;;;;;;4.79;84.86;98530.33;1715331;83;25458;-65
2022/09/24 04:54:09;;;;;;;38.23;22.48;;;;;;;4.84;84.90;98535.75;1715297;83;25616;-65
2022/09/24 04:56:35;;;;;;;35.58;21.25;;;;;;;4.91;84.98;98532.18;1715773;83;25223;-65
2022/09/24 04:59:01;;;;;;;32.20;19.12;;;;;;;5.07;84.97;98534.25;1715377;83;27943;-66
2022/09/24 05:01:28;;;;;;;33.10;20.10;;;;;;;5.09;84.55;98534.80;1715232;83;25675;-65
2022/09/24 05:03:55;;;;;;;33.40;20.68;;;;;;;5.05;84.38;98532.92;1715703;83;25491;-64
2022/09/24 05:06:21;;;;;;;34.05;19.70;;;;;;;5.00;84.59;98533.22;1715521;83;25522;-65
2022/09/24 05:08:47;;;;;;;35.17;19.95;;;;;;;5.00;84.97;98526.44;1715759;83;25625;-66
2022/09/24 05:11:14;;;;;;;33.80;19.60;;;;;;;5.12;85.21;98530.70;1715514;83;27426;-65
2022/09/24 05:13:40;;;;;;;33.42;18.30;;;;;;;5.21;84.91;98530.37;1715171;83;25448;-66
2022/09/24 05:16:07;;;;;;;36.23;17.92;;;;;;;5.29;84.81;98531.69;1715367;83;25753;-65
2022/09/24 05:18:34;;;;;;;23.85;15.88;;;;;;;5.28;85.01;98527.36;1715482;83;25599;-65
2022/09/24 05:21:01;;;;;;;30.23;16.55;;;;;;;5.23;84.97;98529.56;1715809;83;25597;-65
2022/09/24 05:23:27;;;;;;;30.30;17.57;;;;;;;5.21;85.44;98529.02;1715414;83;27486;-65
2022/09/24 05:28:39;;;;;;;27.07;16.95;;;;;;;5.26;85.39;98523.56;1715312;83;25410;-65
2022/09/24 05:31:07;;;;;;;33.90;18.85;;;;;;;5.26;85.54;98524.92;1715259;83;25744;-65
2022/09/24 05:33:35;;;;;;;34.08;18.42;;;;;;;5.33;85.71;98530.05;1715551;83;25640;-65
2022/09/24 05:36:01;;;;;;;30.25;18.30;;;;;;;5.43;85.52;98525.62;1715621;83;27469;-65
2022/09/24 05:38:28;;;;;;;32.63;17.82;;;;;;;5.47;85.49;98530.77;1716194;83;25756;-66
2022/09/24 05:40:55;;;;;;;32.00;17.87;;;;;;;5.50;85.46;98527.48;1717481;83;25727;-65
2022/09/24 05:43:22;;;;;;;32.80;18.70;;;;;;;5.59;85.69;98528.52;1717359;83;25459;-66
2022/09/24 05:45:49;;;;;;;32.63;18.35;;;;;;;5.65;85.38;98527.34;1717606;83;25599;-66
2022/09/24 05:48:16;;;;;;;25.02;15.65;;;;;;;5.71;85.45;98531.39;1717582;83;27495;-66
2022/09/24 05:50:43;;;;;;;27.32;17.32;;;;;;;5.75;85.59;98533.27;1717280;83;25496;-65
2022/09/24 05:53:09;;;;;;;31.52;17.70;;;;;;;5.76;85.62;98527.28;1717457;83;25454;-65
2022/09/24 05:55:36;;;;;;;30.88;18.57;;;;;;;5.85;85.80;98533.73;1717273;83;25631;-66
2022/09/24 05:58:09;;;;;;;28.70;18.10;;;;;;;5.94;85.71;98531.74;1717372;83;25672;-64
2022/09/24 06:00:36;;;;;;;26.80;16.95;;;;;;;6.01;85.29;98529.49;1717392;83;27491;-65
2022/09/24 06:03:12;;;;;;;27.40;16.05;;;;;;;6.05;84.91;98533.31;1717209;83;25701;-65
2022/09/24 06:05:47;;;;;;;31.70;17.62;;;;;;;6.03;85.22;98538.19;1717755;83;25625;-65
2022/09/24 06:08:16;;;;;;;28.07;16.50;;;;;;;6.05;85.31;98533.31;1717377;83;25501;-64
2022/09/24 06:10:46;;;;;;;27.25;15.72;;;;;;;6.02;85.12;98529.78;1717589;83;25582;-66
2022/09/24 06:13:16;;;;;;;34.18;17.10;;;;;;;5.96;85.49;98537.15;1717379;83;27440;-65
2022/09/24 06:15:44;;;;;;;28.12;17.48;;;;;;;6.06;85.67;98530.03;1717208;83;25633;-65
2022/09/24 06:18:12;;;;;;;32.10;17.40;;;;;;;6.11;85.38;98529.45;1717505;83;25497;-65
2022/09/24 06:20:39;;;;;;;31.52;16.90;;;;;;;6.22;85.22;98534.78;1717850;83;25450;-65
2022/09/24 06:23:06;;;;;;;24.90;15.25;;;;;;;6.24;84.86;98530.67;1717521;83;25593;-64
2022/09/24 06:25:33;;;;;;;27.20;16.62;;;;;;;6.25;84.88;98533.64;1717383;83;27426;-64
2022/09/24 06:28:02;;;;;;;27.62;16.42;;;;;;;6.24;84.93;98544.27;1717398;83;25683;-65
2022/09/24 06:30:33;;;;;;;28.38;16.67;;;;;;;6.27;85.12;98542.34;1717796;83;25741;-64
2022/09/24 06:33:05;;;;;;;25.80;16.30;;;;;;;6.35;85.03;98543.63;1717331;83;26437;-65
2022/09/24 06:35:35;;;;;;;26.73;16.15;;;;;;;6.44;85.04;98542.97;1717922;83;25640;-64
2022/09/24 06:38:05;;;;;;;28.15;16.05;;;;;;;6.51;84.91;98542.89;1718325;83;27512;-64
2022/09/24 06:40:32;;;;;;;26.68;16.02;;;;;;;6.65;84.94;98540.86;1722544;83;25939;-65
2022/09/24 06:42:58;;;;;;;28.65;16.97;;;;;;;6.77;84.73;98539.86;1723431;83;25657;-65
2022/09/24 06:45:25;;;;;;;26.37;15.48;;;;;;;6.87;84.57;98538.12;1722878;83;25455;-65
2022/09/24 06:47:58;;;;;;;23.62;13.30;;;;;;;7.01;84.51;98535.49;1722935;83;25479;-65
2022/09/24 06:50:28;;;;;;;25.32;15.98;;;;;;;7.09;84.07;98538.94;1723174;83;27284;-65
2022/09/24 06:52:57;;;;;;;24.20;15.85;;;;;;;7.20;84.34;98534.12;1723099;83;25604;-65
2022/09/24 06:55:24;;;;;;;25.68;15.32;;;;;;;7.35;84.15;98537.75;1722704;83;25663;-65
2022/09/24 06:58:03;;;;;;;28.05;17.27;;;;;;;7.40;84.21;98526.21;1722878;83;25658;-64
2022/09/24 07:00:30;;;;;;;27.05;16.50;;;;;;;7.58;84.25;98529.78;1723210;83;25625;-64
2022/09/24 07:02:56;;;;;;;31.37;19.32;;;;;;;7.65;83.47;98529.66;1723045;83;27504;-65
2022/09/24 07:05:22;;;;;;;31.15;18.05;;;;;;;7.76;83.92;98530.84;1723268;83;25474;-64
2022/09/24 07:07:50;;;;;;;29.05;17.57;;;;;;;7.92;83.72;98531.42;1722876;83;25596;-65
2022/09/24 07:10:19;;;;;;;29.90;18.23;;;;;;;8.13;83.17;98530.50;1723525;83;25921;-65
2022/09/24 07:12:46;;;;;;;27.52;17.15;;;;;;;8.31;83.10;98529.89;1720075;83;25458;-65
2022/09/24 07:15:12;;;;;;;26.65;16.52;;;;;;;8.44;82.61;98531.03;1722860;83;27424;-65
2022/09/24 07:17:39;;;;;;;26.73;17.00;;;;;;;8.46;82.56;98539.74;1722777;83;25498;-64
2022/09/24 07:20:07;;;;;;;25.12;15.03;;;;;;;8.61;83.07;98533.98;1723254;83;25608;-65
2022/09/24 07:22:39;;;;;;;28.95;16.40;;;;;;;8.79;82.11;98541.03;1723006;83;26277;-61
2022/09/24 07:25:10;;;;;;;23.65;15.23;;;;;;;8.85;82.71;98540.36;1723365;83;25637;-65
2022/09/24 07:27:37;;;;;;;25.08;16.50;;;;;;;8.99;82.34;98545.81;1723153;83;27335;-64
2022/09/24 07:30:09;;;;;;;24.25;14.90;;;;;;;9.15;82.33;98546.28;1723132;83;25700;-68
2022/09/24 07:32:37;;;;;;;24.82;15.10;;;;;;;9.38;82.00;98551.25;1723321;83;25620;-66
2022/09/24 07:35:05;;;;;;;22.40;14.68;;;;;;;9.55;81.45;98556.61;1722728;83;25428;-66
2022/09/24 07:37:32;;;;;;;23.25;14.07;;;;;;;9.65;80.84;98550.89;1723380;83;25404;-64
2022/09/24 07:40:00;;;;;;;20.50;13.28;;;;;;;9.59;80.50;98549.97;1718133;83;27436;-65
2022/09/24 07:42:27;;;;;;;23.65;14.07;;;;;;;9.63;79.96;98555.88;1717464;83;25680;-63
2022/09/24 07:44:55;;;;;;;23.07;15.03;;;;;;;9.65;79.99;98553.63;1717651;83;25419;-65
2022/09/24 07:47:22;;;;;;;26.50;16.42;;;;;;;9.73;80.48;98556.76;1717666;83;25621;-62
2022/09/24 07:49:49;;;;;;;25.65;16.10;;;;;;;9.81;80.58;98563.42;1717712;83;25618;-66
2022/09/24 07:52:15;;;;;;;21.35;14.58;;;;;;;9.96;80.30;98558.13;1717542;83;27339;-65
2022/09/24 07:54:42;;;;;;;24.20;14.70;;;;;;;10.02;79.04;98562.35;1717334;83;25672;-64
2022/09/24 07:57:12;;;;;;;25.08;13.32;;;;;;;9.99;79.80;98562.39;1717628;83;25620;-61
2022/09/24 07:59:39;;;;;;;20.57;12.85;;;;;;;10.05;79.75;98556.25;1717718;83;25644;-65
2022/09/24 08:02:15;;;;;;;21.62;13.45;;;;;;;9.98;78.94;98561.34;1717812;83;25486;-66
2022/09/24 08:04:43;;;;;;;19.52;14.13;;;;;;;9.86;79.16;98556.44;1717725;83;27336;-61
2022/09/24 08:07:11;;;;;;;25.05;15.43;;;;;;;9.89;79.88;98564.84;1717301;83;25634;-65
2022/09/24 08:09:38;;;;;;;20.90;13.85;;;;;;;10.04;80.21;98558.17;1717705;83;25503;-65
2022/09/24 08:12:06;;;;;;;22.87;13.30;;;;;;;10.13;79.57;98561.53;1717746;83;25455;-66
2022/09/24 08:14:32;;;;;;;20.12;14.03;;;;;;;10.23;79.00;98564.00;1717773;83;25625;-65
2022/09/24 08:16:59;;;;;;;19.02;13.30;;;;;;;10.22;78.90;98565.11;1717314;83;29553;-65
2022/09/24 08:19:27;;;;;;;17.87;13.25;;;;;;;10.19;78.75;98568.47;1689661;83;25698;-65
2022/09/24 08:21:53;;;;;;;20.23;14.18;;;;;;;10.24;79.35;98571.64;1717463;83;25602;-65
2022/09/24 08:24:20;;;;;;;18.82;12.58;;;;;;;10.37;79.06;98567.21;1717382;83;25440;-65
2022/09/24 08:26:47;;;;;;;16.02;11.43;;;;;;;10.43;78.65;98563.22;1689551;83;25715;-66
2022/09/24 08:29:24;;;;;;;18.17;11.95;;;;;;;10.47;78.28;98564.22;1717413;83;27470;-66
2022/09/24 08:31:59;;;;;;;16.93;12.00;;;;;;;10.53;78.78;98560.77;1717855;83;25501;-66
2022/09/24 08:34:25;;;;;;;18.40;11.45;;;;;;;10.64;78.38;98558.56;1717444;83;25450;-65
2022/09/24 08:36:52;;;;;;;15.40;10.93;;;;;;;10.81;78.08;98561.12;1717336;83;25659;-65
2022/09/24 08:39:19;;;;;;;14.93;11.20;;;;;;;10.85;77.12;98557.42;1719895;83;25478;-65
2022/09/24 08:42:03;;;;;;;16.32;11.40;;;;;;;10.91;77.22;98556.16;1722847;83;27262;-64
2022/09/24 08:47:49;;;;;;;15.20;11.20;;;;;;;11.16;76.28;98555.17;1722866;83;25640;-65
2022/09/24 08:50:23;;;;;;;16.57;11.83;;;;;;;11.38;76.29;98545.19;1722769;83;25430;-66
2022/09/24 08:53:26;;;;;;;18.17;10.68;;;;;;;11.53;76.13;98546.64;1722845;83;25605;-65
2022/09/24 08:56:00;;;;;;;16.40;10.72;;;;;;;11.70;75.70;98542.27;1722799;83;27462;-61
2022/09/24 08:58:50;;;;;;;17.10;11.65;;;;;;;11.96;75.08;98539.24;1722873;83;25687;-64
2022/09/24 09:01:37;;;;;;;19.82;11.65;;;;;;;12.20;75.31;98531.08;1722791;83;25605;-64
2022/09/24 09:04:27;;;;;;;16.82;12.33;;;;;;;12.44;74.12;98531.06;1723305;83;25819;-64
2022/09/24 09:07:05;;;;;;;15.33;10.87;;;;;;;12.77;74.83;98528.48;1695893;84;25751;-64
2022/09/24 09:09:55;;;;;;;17.50;12.47;;;;;;;13.09;72.67;98521.25;1694862;84;27465;-64
2022/09/24 09:12:38;;;;;;;20.43;11.30;;;;;;;13.28;71.67;98516.69;1695406;84;25507;-62
2022/09/24 09:15:12;;;;;;;19.50;11.97;;;;;;;13.40;70.56;98506.86;1695399;84;25681;-64
2022/09/24 09:18:03;;;;;;;21.75;14.15;;;;;;;13.37;69.99;98508.91;1695520;84;25701;-64
2022/09/24 09:20:34;;;;;;;17.80;12.23;;;;;;;13.46;70.60;98503.33;1695889;84;25547;-63
2022/09/24 09:23:05;;;;;;;18.65;13.10;;;;;;;13.80;70.75;98504.20;1695361;84;29614;-64
2022/09/24 09:25:35;;;;;;;19.60;13.13;;;;;;;14.03;68.71;98503.23;1672168;84;26080;-64
2022/09/24 09:28:17;;;;;;;17.73;13.18;;;;;;;14.03;68.73;98500.48;1672163;84;25852;-62
2022/09/24 09:30:49;;;;;;;18.40;11.90;;;;;;;14.08;68.17;98505.53;1694236;84;25513;-64
2022/09/24 09:33:45;;;;;;;19.00;13.98;;;;;;;13.91;67.30;98506.73;1695392;84;25699;-65
2022/09/24 09:36:52;;;;;;;22.00;15.53;;;;;;;13.75;68.98;98498.33;1695753;84;27585;-61
2022/09/24 09:39:36;;;;;;;21.05;13.88;;;;;;;13.98;69.34;98504.81;1692218;84;25817;-65
2022/09/24 09:42:21;;;;;;;21.02;12.93;;;;;;;13.92;67.74;98499.29;1685467;85;25689;-64
2022/09/24 09:44:48;;;;;;;21.10;14.23;;;;;;;13.84;67.12;98495.48;1713567;83;25653;-64
2022/09/24 09:47:36;;;;;;;18.23;13.03;;;;;;;13.98;67.26;98496.55;1717566;83;25631;-64
2022/09/24 09:50:16;;;;;;;20.17;12.80;;;;;;;13.90;66.14;98491.37;1718057;83;27539;-65
2022/09/24 09:52:43;;;;;;;;;;;;;;;13.98;66.99;98493.80;1704718;83;25845;-65
2022/09/24 09:55:25;;;;;;;19.27;13.65;;;;;;;14.04;65.90;98499.33;1717843;83;25498;-65
2022/09/24 09:57:53;;;;;;;21.37;14.15;;;;;;;14.18;65.69;98496.26;1716800;83;25640;-65
2022/09/24 10:00:35;;;;;;;19.90;13.40;;;;;;;14.50;65.03;98501.22;1717798;83;25612;-65
2022/09/24 10:03:03;;;;;;;19.60;13.32;;;;;;;14.87;64.71;98494.10;1717786;83;27356;-64
2022/09/24 10:05:30;;;;;;;16.23;11.43;;;;;;;15.29;63.42;98495.76;1717558;83;25623;-65
2022/09/24 10:07:57;;;;;;;15.78;11.40;;;;;;;15.65;62.10;98498.16;1717802;83;25672;-65
2022/09/24 10:10:27;;;;;;;16.10;10.23;;;;;;;15.65;62.10;98498.16;1717411;83;25508;-62
2022/09/24 10:13:11;;;;;;;24.40;15.30;;;;;;;15.74;60.52;98488.89;1717801;83;25624;-64
2022/09/24 10:15:54;;;;;;;11.57;8.60;;;;;;;15.73;60.60;98489.48;1717988;83;27466;-64
2022/09/24 10:18:33;;;;;;;12.23;8.93;;;;;;;15.88;59.73;98490.67;1717759;83;25689;-63
2022/09/24 10:21:04;;;;;;;12.95;8.68;;;;;;;15.92;59.10;98487.41;1718011;83;25420;-65
2022/09/24 10:23:41;;;;;;;12.37;8.20;;;;;;;15.93;59.24;98492.37;1717426;83;25488;-64
2022/09/24 10:26:09;;;;;;;12.98;9.65;;;;;;;16.10;60.39;98483.55;1717939;83;25448;-65
2022/09/24 10:31:28;;;;;;;12.70;8.90;;;;;;;17.10;54.14;98482.76;1717422;83;25475;-65
2022/09/24 10:33:56;;;;;;;;;;;;;;;17.62;57.02;98481.24;1720548;83;25692;-65
2022/09/24 10:36:27;;;;;;;11.73;6.80;;;;;;;17.93;55.67;98469.16;1717962;83;25507;-65
2022/09/24 10:39:14;;;;;;;8.65;6.05;;;;;;;18.24;54.78;98464.34;1717783;83;32680;-65
2022/09/24 10:41:52;;;;;;;8.88;7.15;;;;;;;18.59;50.16;98465.31;1717503;83;27422;-65
2022/09/24 10:44:21;;;;;;;9.48;6.75;;;;;;;18.69;49.55;98466.84;1717710;83;26032;-65
2022/09/24 10:47:23;;;;;;;9.63;7.28;;;;;;;18.46;50.42;98454.41;1717491;83;25746;-65
2022/09/24 10:50:32;;;;;;;7.80;5.50;;;;;;;18.27;51.09;98458.87;1717796;83;26419;-65
2022/09/24 10:53:09;;;;;;;11.03;7.53;;;;;;;17.99;48.83;98457.17;1717613;83;25423;-65
2022/09/24 10:56:02;;;;;;;8.25;6.55;;;;;;;17.70;50.94;98454.47;1710437;83;27421;-65
2022/09/24 10:59:14;;;;;;;6.00;4.65;;;;;;;17.91;49.72;98450.69;1717691;83;25896;-65
2022/09/24 11:01:45;;;;;;;5.53;3.87;;;;;;;18.13;46.53;98452.48;1685651;84;25594;-65
2022/09/24 11:04:22;;;;;;;5.58;4.28;;;;;;;18.47;45.14;98439.36;1685425;85;25489;-64
2022/09/24 11:07:26;;;;;;;10.08;5.90;;;;;;;18.32;46.06;98454.98;1685535;85;25512;-65
2022/09/24 11:10:17;;;;;;;5.87;4.55;;;;;;;18.29;45.65;98441.86;1685575;84;28376;-65
2022/09/24 11:12:58;;;;;;;10.25;7.12;;;;;;;18.11;46.21;98449.88;1685437;84;25691;-64
2022/09/24 11:15:59;;;;;;;8.58;5.42;;;;;;;18.36;47.16;98446.13;1685166;85;25753;-65
2022/09/24 11:19:02;;;;;;;8.93;5.42;;;;;;;18.39;47.14;98441.22;1660358;85;25640;-65
2022/09/24 11:21:56;;;;;;;10.90;5.90;;;;;;;18.77;48.02;98441.98;1660384;86;25498;-64
2022/09/24 11:24:36;;;;;;;6.08;5.25;;;;;;;19.19;45.74;98444.34;1659894;86;25725;-63
2022/09/24 11:27:28;;;;;;;;;;;;;;;19.30;46.84;98431.98;1662481;86;27178;-63
2022/09/24 11:30:20;;;;;;;8.43;5.80;;;;;;;19.50;45.98;98442.34;1660045;86;25708;-64
2022/09/24 11:33:25;;;;;;;8.20;4.92;;;;;;;19.69;46.96;98436.39;1675383;85;25928;-64
2022/09/24 11:36:09;;;;;;;6.67;5.25;;;;;;;20.00;45.73;98429.34;1687458;85;25850;-64
2022/09/24 11:39:25;;;;;;;17.48;12.00;;;;;;;20.26;45.48;98428.98;1687515;85;27501;-64
2022/09/24 11:42:15;;;;;;;5.20;4.12;;;;;;;20.26;43.95;98428.38;1661124;86;25682;-64
2022/09/24 11:45:19;;;;;;;6.55;4.15;;;;;;;20.17;44.70;98434.86;1610694;89;25568;-64
2022/09/24 11:48:06;;;;;;;5.15;4.25;;;;;;;20.05;43.19;98437.34;1610467;89;25646;-64
2022/09/24 11:50:59;;;;;;;5.12;3.98;;;;;;;20.29;44.73;98430.39;1610995;89;25716;-64
2022/09/24 11:53:40;;;;;;;8.05;6.40;;;;;;;20.28;41.90;98434.95;1611435;89;27483;-64
2022/09/24 11:56:28;;;;;;;9.38;7.45;;;;;;;20.29;43.13;98435.14;1612442;89;25744;-64
2022/09/24 11:59:18;;;;;;;8.63;6.03;;;;;;;19.93;42.87;98433.66;1612772;89;25518;-64
2022/09/24 12:01:51;;;;;;;7.65;6.28;;;;;;;20.11;43.67;98435.81;1612620;89;25739;-65
2022/09/24 12:04:39;;;;;;;11.28;9.60;;;;;;;19.81;43.08;98425.58;1605181;89;25772;-64
2022/09/24 12:07:32;;;;;;;6.08;5.15;;;;;;;19.48;44.11;98436.93;1611299;89;28314;-64
2022/09/24 12:10:04;;;;;;;7.12;4.90;;;;;;;19.73;45.14;98433.05;1612579;89;25805;-65